<?xml version="1.0" encoding="utf-8"?>
<gpx xmlns:xsi="http://www.w3.org/2001/XMLSchema-instance" xmlns:xsd="http://www.w3.org/2001/XMLSchema" version="1.1" creator="Shapelink.com" xmlns="http://www.topografix.com/GPX/1/1" xmlns:gpxtpx="http://www.garmin.com/xmlschemas/TrackPointExtension/v1">
  <metadata>
    <name>Cykling 12.68 km, 2019-09-03</name>
    <desc></desc>
    <author><name>Henrik Staffas</name></author> 
    <time>2019-09-03T17:10:11Z</time>
  </metadata>
  <trk>
    <name>Cykling 12.68 km, 2019-09-03</name>
    <trkseg>
      <trkpt lat="59.3333578612" lon="18.018068689466">
        <ele>71.6</ele>
        <time>2019-09-03T17:10:11Z</time>
      </trkpt>
      <trkpt lat="59.333105314553" lon="18.017394784706">
        <ele>72</ele>
        <time>2019-09-03T17:10:25Z</time>
      </trkpt>
      <trkpt lat="59.333129957339" lon="18.017284395083">
        <ele>71.8</ele>
        <time>2019-09-03T17:10:27Z</time>
      </trkpt>
      <trkpt lat="59.333550728719" lon="18.016536310508">
        <ele>72</ele>
        <time>2019-09-03T17:10:40Z</time>
      </trkpt>
      <trkpt lat="59.3338272476" lon="18.016055273267">
        <ele>72</ele>
        <time>2019-09-03T17:10:49Z</time>
      </trkpt>
      <trkpt lat="59.334122961032" lon="18.01538363162">
        <ele>72.4</ele>
        <time>2019-09-03T17:10:57Z</time>
      </trkpt>
      <trkpt lat="59.334528309716" lon="18.014533204046">
        <ele>73.2</ele>
        <time>2019-09-03T17:11:08Z</time>
      </trkpt>
      <trkpt lat="59.334719249398" lon="18.014155012718">
        <ele>73.4</ele>
        <time>2019-09-03T17:11:13Z</time>
      </trkpt>
      <trkpt lat="59.335137422389" lon="18.01339376856">
        <ele>74</ele>
        <time>2019-09-03T17:11:23Z</time>
      </trkpt>
      <trkpt lat="59.335172291093" lon="18.013319588745">
        <ele>74.4</ele>
        <time>2019-09-03T17:11:24Z</time>
      </trkpt>
      <trkpt lat="59.335198945535" lon="18.013245325111">
        <ele>74.4</ele>
        <time>2019-09-03T17:11:25Z</time>
      </trkpt>
      <trkpt lat="59.335232556954" lon="18.013189082562">
        <ele>74.4</ele>
        <time>2019-09-03T17:11:26Z</time>
      </trkpt>
      <trkpt lat="59.33531587304" lon="18.013235099193">
        <ele>74.8</ele>
        <time>2019-09-03T17:11:28Z</time>
      </trkpt>
      <trkpt lat="59.335386867733" lon="18.013373819638">
        <ele>75.2</ele>
        <time>2019-09-03T17:11:30Z</time>
      </trkpt>
      <trkpt lat="59.335418551315" lon="18.013453196231">
        <ele>75.6</ele>
        <time>2019-09-03T17:11:31Z</time>
      </trkpt>
      <trkpt lat="59.335483008126" lon="18.013603567517">
        <ele>76</ele>
        <time>2019-09-03T17:11:33Z</time>
      </trkpt>
      <trkpt lat="59.33554721348" lon="18.013714879149">
        <ele>76.4</ele>
        <time>2019-09-03T17:11:35Z</time>
      </trkpt>
      <trkpt lat="59.33561343049" lon="18.013912105256">
        <ele>76.8</ele>
        <time>2019-09-03T17:11:38Z</time>
      </trkpt>
      <trkpt lat="59.335674953636" lon="18.014098099617">
        <ele>78.2</ele>
        <time>2019-09-03T17:11:41Z</time>
      </trkpt>
      <trkpt lat="59.335709738521" lon="18.014262301038">
        <ele>79.6</ele>
        <time>2019-09-03T17:11:44Z</time>
      </trkpt>
      <trkpt lat="59.335769417649" lon="18.014452067254">
        <ele>80.6</ele>
        <time>2019-09-03T17:11:47Z</time>
      </trkpt>
      <trkpt lat="59.336039985381" lon="18.015245078813">
        <ele>81.6</ele>
        <time>2019-09-03T17:11:59Z</time>
      </trkpt>
      <trkpt lat="59.336092120799" lon="18.015385391819">
        <ele>82.8</ele>
        <time>2019-09-03T17:12:01Z</time>
      </trkpt>
      <trkpt lat="59.336177699998" lon="18.015543977367">
        <ele>84</ele>
        <time>2019-09-03T17:12:04Z</time>
      </trkpt>
      <trkpt lat="59.336230673606" lon="18.01565101423">
        <ele>85.2</ele>
        <time>2019-09-03T17:12:06Z</time>
      </trkpt>
      <trkpt lat="59.336337961926" lon="18.015853353296">
        <ele>86.4</ele>
        <time>2019-09-03T17:12:10Z</time>
      </trkpt>
      <trkpt lat="59.336420858917" lon="18.016013615224">
        <ele>87.6</ele>
        <time>2019-09-03T17:12:13Z</time>
      </trkpt>
      <trkpt lat="59.336550694548" lon="18.016271861563">
        <ele>88.8</ele>
        <time>2019-09-03T17:12:18Z</time>
      </trkpt>
      <trkpt lat="59.336709950648" lon="18.016583752062">
        <ele>89.8</ele>
        <time>2019-09-03T17:12:23Z</time>
      </trkpt>
      <trkpt lat="59.336935088482" lon="18.016860857676">
        <ele>90.4</ele>
        <time>2019-09-03T17:12:30Z</time>
      </trkpt>
      <trkpt lat="59.337048327951" lon="18.016815343959">
        <ele>90.4</ele>
        <time>2019-09-03T17:12:32Z</time>
      </trkpt>
      <trkpt lat="59.33714648" lon="18.016698416454">
        <ele>90.2</ele>
        <time>2019-09-03T17:12:34Z</time>
      </trkpt>
      <trkpt lat="59.337518217265" lon="18.015894005511">
        <ele>90</ele>
        <time>2019-09-03T17:12:43Z</time>
      </trkpt>
      <trkpt lat="59.337844776089" lon="18.015049696724">
        <ele>89.8</ele>
        <time>2019-09-03T17:12:51Z</time>
      </trkpt>
      <trkpt lat="59.338101513686" lon="18.014428597934">
        <ele>88.6</ele>
        <time>2019-09-03T17:12:56Z</time>
      </trkpt>
      <trkpt lat="59.338208885825" lon="18.014168339939">
        <ele>87.2</ele>
        <time>2019-09-03T17:12:58Z</time>
      </trkpt>
      <trkpt lat="59.338296309042" lon="18.01393943025">
        <ele>86</ele>
        <time>2019-09-03T17:13:00Z</time>
      </trkpt>
      <trkpt lat="59.338426144673" lon="18.013724518334">
        <ele>84.8</ele>
        <time>2019-09-03T17:13:04Z</time>
      </trkpt>
      <trkpt lat="59.338496384995" lon="18.013712448398">
        <ele>84</ele>
        <time>2019-09-03T17:13:06Z</time>
      </trkpt>
      <trkpt lat="59.338539887056" lon="18.013716974624">
        <ele>83.6</ele>
        <time>2019-09-03T17:13:07Z</time>
      </trkpt>
      <trkpt lat="59.338595039958" lon="18.013739773392">
        <ele>83</ele>
        <time>2019-09-03T17:13:08Z</time>
      </trkpt>
      <trkpt lat="59.338638290562" lon="18.013790651525">
        <ele>82.6</ele>
        <time>2019-09-03T17:13:09Z</time>
      </trkpt>
      <trkpt lat="59.338678020768" lon="18.013854521603">
        <ele>82.2</ele>
        <time>2019-09-03T17:13:10Z</time>
      </trkpt>
      <trkpt lat="59.338758738465" lon="18.013983351406">
        <ele>81.4</ele>
        <time>2019-09-03T17:13:12Z</time>
      </trkpt>
      <trkpt lat="59.33888237149" lon="18.014211842">
        <ele>80.8</ele>
        <time>2019-09-03T17:13:15Z</time>
      </trkpt>
      <trkpt lat="59.338990581819" lon="18.014561283411">
        <ele>80.4</ele>
        <time>2019-09-03T17:13:18Z</time>
      </trkpt>
      <trkpt lat="59.339032994233" lon="18.014655495967">
        <ele>80.2</ele>
        <time>2019-09-03T17:13:19Z</time>
      </trkpt>
      <trkpt lat="59.339141120743" lon="18.014942911318">
        <ele>79.4</ele>
        <time>2019-09-03T17:13:22Z</time>
      </trkpt>
      <trkpt lat="59.339165344434" lon="18.01504248829">
        <ele>79</ele>
        <time>2019-09-03T17:13:23Z</time>
      </trkpt>
      <trkpt lat="59.339185963908" lon="18.015138461045">
        <ele>78.6</ele>
        <time>2019-09-03T17:13:24Z</time>
      </trkpt>
      <trkpt lat="59.33921178016" lon="18.015325209777">
        <ele>77.6</ele>
        <time>2019-09-03T17:13:26Z</time>
      </trkpt>
      <trkpt lat="59.339228879236" lon="18.015514808355">
        <ele>76.6</ele>
        <time>2019-09-03T17:13:29Z</time>
      </trkpt>
      <trkpt lat="59.339321247774" lon="18.015617738087">
        <ele>76</ele>
        <time>2019-09-03T17:13:31Z</time>
      </trkpt>
      <trkpt lat="59.339361983808" lon="18.015614552965">
        <ele>75.4</ele>
        <time>2019-09-03T17:13:32Z</time>
      </trkpt>
      <trkpt lat="59.33940707843" lon="18.015602818305">
        <ele>74.8</ele>
        <time>2019-09-03T17:13:33Z</time>
      </trkpt>
      <trkpt lat="59.339457705106" lon="18.015549425602">
        <ele>74.2</ele>
        <time>2019-09-03T17:13:34Z</time>
      </trkpt>
      <trkpt lat="59.339511433085" lon="18.015476754529">
        <ele>73.8</ele>
        <time>2019-09-03T17:13:35Z</time>
      </trkpt>
      <trkpt lat="59.339672449384" lon="18.015167546238">
        <ele>73.2</ele>
        <time>2019-09-03T17:13:38Z</time>
      </trkpt>
      <trkpt lat="59.339899850331" lon="18.014632864837">
        <ele>71.8</ele>
        <time>2019-09-03T17:13:42Z</time>
      </trkpt>
      <trkpt lat="59.339952153387" lon="18.01448257737">
        <ele>71.2</ele>
        <time>2019-09-03T17:13:43Z</time>
      </trkpt>
      <trkpt lat="59.339999343484" lon="18.014322566899">
        <ele>70.8</ele>
        <time>2019-09-03T17:13:44Z</time>
      </trkpt>
      <trkpt lat="59.340067739788" lon="18.013982345578">
        <ele>70</ele>
        <time>2019-09-03T17:13:46Z</time>
      </trkpt>
      <trkpt lat="59.34012792183" lon="18.013679926626">
        <ele>69.8</ele>
        <time>2019-09-03T17:13:48Z</time>
      </trkpt>
      <trkpt lat="59.340199419437" lon="18.013123452285">
        <ele>72</ele>
        <time>2019-09-03T17:13:52Z</time>
      </trkpt>
      <trkpt lat="59.340218027255" lon="18.013011134825">
        <ele>72.6</ele>
        <time>2019-09-03T17:13:53Z</time>
      </trkpt>
      <trkpt lat="59.340246274258" lon="18.012912479862">
        <ele>73</ele>
        <time>2019-09-03T17:13:54Z</time>
      </trkpt>
      <trkpt lat="59.340292877622" lon="18.012860847358">
        <ele>73.4</ele>
        <time>2019-09-03T17:13:55Z</time>
      </trkpt>
      <trkpt lat="59.340408380204" lon="18.012844083558">
        <ele>73.8</ele>
        <time>2019-09-03T17:13:57Z</time>
      </trkpt>
      <trkpt lat="59.340962423794" lon="18.013023623856">
        <ele>73.6</ele>
        <time>2019-09-03T17:14:07Z</time>
      </trkpt>
      <trkpt lat="59.341021935284" lon="18.012853303648">
        <ele>73</ele>
        <time>2019-09-03T17:14:10Z</time>
      </trkpt>
      <trkpt lat="59.341076836729" lon="18.01271483466">
        <ele>72.8</ele>
        <time>2019-09-03T17:14:12Z</time>
      </trkpt>
      <trkpt lat="59.341175910787" lon="18.011937245797">
        <ele>72</ele>
        <time>2019-09-03T17:14:19Z</time>
      </trkpt>
      <trkpt lat="59.341343884063" lon="18.011112383018">
        <ele>72.2</ele>
        <time>2019-09-03T17:14:26Z</time>
      </trkpt>
      <trkpt lat="59.341797847767" lon="18.010497235377">
        <ele>71.6</ele>
        <time>2019-09-03T17:14:35Z</time>
      </trkpt>
      <trkpt lat="59.342028014741" lon="18.01027318719">
        <ele>71.6</ele>
        <time>2019-09-03T17:14:39Z</time>
      </trkpt>
      <trkpt lat="59.342163717702" lon="18.009987448219">
        <ele>71.4</ele>
        <time>2019-09-03T17:14:42Z</time>
      </trkpt>
      <trkpt lat="59.342323392897" lon="18.009791647035">
        <ele>70.6</ele>
        <time>2019-09-03T17:14:45Z</time>
      </trkpt>
      <trkpt lat="59.34244048804" lon="18.00969902704">
        <ele>70.4</ele>
        <time>2019-09-03T17:14:47Z</time>
      </trkpt>
      <trkpt lat="59.34276905852" lon="18.009576902757">
        <ele>70.8</ele>
        <time>2019-09-03T17:14:52Z</time>
      </trkpt>
      <trkpt lat="59.342976342907" lon="18.009572711807">
        <ele>70.6</ele>
        <time>2019-09-03T17:14:55Z</time>
      </trkpt>
      <trkpt lat="59.343230314477" lon="18.00943248262">
        <ele>70.4</ele>
        <time>2019-09-03T17:14:59Z</time>
      </trkpt>
      <trkpt lat="59.343295358021" lon="18.009158981223">
        <ele>70</ele>
        <time>2019-09-03T17:15:01Z</time>
      </trkpt>
      <trkpt lat="59.343381859229" lon="18.008825213965">
        <ele>69.4</ele>
        <time>2019-09-03T17:15:03Z</time>
      </trkpt>
      <trkpt lat="59.343571709264" lon="18.008285084329">
        <ele>68.2</ele>
        <time>2019-09-03T17:15:07Z</time>
      </trkpt>
      <trkpt lat="59.343809336129" lon="18.007871102288">
        <ele>67</ele>
        <time>2019-09-03T17:15:11Z</time>
      </trkpt>
      <trkpt lat="59.34393078986" lon="18.007713857844">
        <ele>66.8</ele>
        <time>2019-09-03T17:15:13Z</time>
      </trkpt>
      <trkpt lat="59.344272855199" lon="18.007484277603">
        <ele>67.4</ele>
        <time>2019-09-03T17:15:18Z</time>
      </trkpt>
      <trkpt lat="59.344340832408" lon="18.007469776916">
        <ele>67.6</ele>
        <time>2019-09-03T17:15:19Z</time>
      </trkpt>
      <trkpt lat="59.34446304051" lon="18.007444379759">
        <ele>68.2</ele>
        <time>2019-09-03T17:15:21Z</time>
      </trkpt>
      <trkpt lat="59.344611567778" lon="18.007353436144">
        <ele>69</ele>
        <time>2019-09-03T17:15:24Z</time>
      </trkpt>
      <trkpt lat="59.344660098979" lon="18.007347568814">
        <ele>69.4</ele>
        <time>2019-09-03T17:15:25Z</time>
      </trkpt>
      <trkpt lat="59.344896636197" lon="18.007408840503">
        <ele>70.4</ele>
        <time>2019-09-03T17:15:29Z</time>
      </trkpt>
      <trkpt lat="59.345438861308" lon="18.007784098166">
        <ele>69.6</ele>
        <time>2019-09-03T17:15:37Z</time>
      </trkpt>
      <trkpt lat="59.345580934513" lon="18.007873616858">
        <ele>69.4</ele>
        <time>2019-09-03T17:15:39Z</time>
      </trkpt>
      <trkpt lat="59.346075047518" lon="18.00829002965">
        <ele>70.6</ele>
        <time>2019-09-03T17:15:46Z</time>
      </trkpt>
      <trkpt lat="59.3465006804" lon="18.008617929578">
        <ele>71.8</ele>
        <time>2019-09-03T17:15:52Z</time>
      </trkpt>
      <trkpt lat="59.347006444246" lon="18.009015315457">
        <ele>71.6</ele>
        <time>2019-09-03T17:15:59Z</time>
      </trkpt>
      <trkpt lat="59.347356220933" lon="18.009274316167">
        <ele>73</ele>
        <time>2019-09-03T17:16:04Z</time>
      </trkpt>
      <trkpt lat="59.347619496412" lon="18.00937632389">
        <ele>74</ele>
        <time>2019-09-03T17:16:08Z</time>
      </trkpt>
      <trkpt lat="59.348155938012" lon="18.009079688449">
        <ele>74.2</ele>
        <time>2019-09-03T17:16:17Z</time>
      </trkpt>
      <trkpt lat="59.348341010364" lon="18.008783555922">
        <ele>75.2</ele>
        <time>2019-09-03T17:16:21Z</time>
      </trkpt>
      <trkpt lat="59.348472522375" lon="18.008513407285">
        <ele>76.2</ele>
        <time>2019-09-03T17:16:25Z</time>
      </trkpt>
      <trkpt lat="59.348512252581" lon="18.008509300154">
        <ele>76.4</ele>
        <time>2019-09-03T17:16:26Z</time>
      </trkpt>
      <trkpt lat="59.348599759617" lon="18.008565375065">
        <ele>76.4</ele>
        <time>2019-09-03T17:16:28Z</time>
      </trkpt>
      <trkpt lat="59.34873361856" lon="18.008768803778">
        <ele>76.4</ele>
        <time>2019-09-03T17:16:31Z</time>
      </trkpt>
      <trkpt lat="59.34874870598" lon="18.008999557485">
        <ele>76.2</ele>
        <time>2019-09-03T17:16:33Z</time>
      </trkpt>
      <trkpt lat="59.34872439847" lon="18.009478834527">
        <ele>77.4</ele>
        <time>2019-09-03T17:16:38Z</time>
      </trkpt>
      <trkpt lat="59.348737138958" lon="18.009652675133">
        <ele>78.6</ele>
        <time>2019-09-03T17:16:40Z</time>
      </trkpt>
      <trkpt lat="59.349018016427" lon="18.010632938338">
        <ele>79</ele>
        <time>2019-09-03T17:16:50Z</time>
      </trkpt>
      <trkpt lat="59.349078282288" lon="18.010792781171">
        <ele>79.2</ele>
        <time>2019-09-03T17:16:52Z</time>
      </trkpt>
      <trkpt lat="59.349121951987" lon="18.01109126063">
        <ele>79</ele>
        <time>2019-09-03T17:16:55Z</time>
      </trkpt>
      <trkpt lat="59.349178948907" lon="18.01129577899">
        <ele>78.6</ele>
        <time>2019-09-03T17:16:57Z</time>
      </trkpt>
      <trkpt lat="59.349453456132" lon="18.011828700192">
        <ele>80.2</ele>
        <time>2019-09-03T17:17:04Z</time>
      </trkpt>
      <trkpt lat="59.349615729716" lon="18.012139249587">
        <ele>80.8</ele>
        <time>2019-09-03T17:17:08Z</time>
      </trkpt>
      <trkpt lat="59.349840280817" lon="18.012321388274">
        <ele>81.2</ele>
        <time>2019-09-03T17:17:12Z</time>
      </trkpt>
      <trkpt lat="59.350128869634" lon="18.012382827601">
        <ele>82.4</ele>
        <time>2019-09-03T17:17:17Z</time>
      </trkpt>
      <trkpt lat="59.350424583066" lon="18.012266822105">
        <ele>83.4</ele>
        <time>2019-09-03T17:17:22Z</time>
      </trkpt>
      <trkpt lat="59.350584928813" lon="18.012151068066">
        <ele>84.4</ele>
        <time>2019-09-03T17:17:25Z</time>
      </trkpt>
      <trkpt lat="59.350791961743" lon="18.011964067877">
        <ele>85.4</ele>
        <time>2019-09-03T17:17:29Z</time>
      </trkpt>
      <trkpt lat="59.351043083467" lon="18.011751502893">
        <ele>86.4</ele>
        <time>2019-09-03T17:17:34Z</time>
      </trkpt>
      <trkpt lat="59.351248942931" lon="18.011457633479">
        <ele>87</ele>
        <time>2019-09-03T17:17:38Z</time>
      </trkpt>
      <trkpt lat="59.351361428029" lon="18.011375239402">
        <ele>87</ele>
        <time>2019-09-03T17:17:40Z</time>
      </trkpt>
      <trkpt lat="59.351923937338" lon="18.01129996994">
        <ele>85.4</ele>
        <time>2019-09-03T17:17:48Z</time>
      </trkpt>
      <trkpt lat="59.352465659535" lon="18.011379011257">
        <ele>84.8</ele>
        <time>2019-09-03T17:17:55Z</time>
      </trkpt>
      <trkpt lat="59.352671183723" lon="18.01145252052">
        <ele>84.8</ele>
        <time>2019-09-03T17:17:58Z</time>
      </trkpt>
      <trkpt lat="59.353252217031" lon="18.011572549328">
        <ele>85.6</ele>
        <time>2019-09-03T17:18:06Z</time>
      </trkpt>
      <trkpt lat="59.353311393245" lon="18.011504153024">
        <ele>85.2</ele>
        <time>2019-09-03T17:18:08Z</time>
      </trkpt>
      <trkpt lat="59.353357409876" lon="18.011382866931">
        <ele>85.2</ele>
        <time>2019-09-03T17:18:10Z</time>
      </trkpt>
      <trkpt lat="59.353460423427" lon="18.011054883184">
        <ele>86.6</ele>
        <time>2019-09-03T17:18:16Z</time>
      </trkpt>
      <trkpt lat="59.353626552685" lon="18.011428799743">
        <ele>86.2</ele>
        <time>2019-09-03T17:18:22Z</time>
      </trkpt>
      <trkpt lat="59.353731242616" lon="18.011636754682">
        <ele>85.8</ele>
        <time>2019-09-03T17:18:25Z</time>
      </trkpt>
      <trkpt lat="59.35375353847" lon="18.011791400737">
        <ele>85.8</ele>
        <time>2019-09-03T17:18:27Z</time>
      </trkpt>
      <trkpt lat="59.353712215703" lon="18.011937245797">
        <ele>86</ele>
        <time>2019-09-03T17:18:29Z</time>
      </trkpt>
      <trkpt lat="59.353651866023" lon="18.012048138334">
        <ele>85.8</ele>
        <time>2019-09-03T17:18:31Z</time>
      </trkpt>
      <trkpt lat="59.353650022005" lon="18.012222230397">
        <ele>85.2</ele>
        <time>2019-09-03T17:18:33Z</time>
      </trkpt>
      <trkpt lat="59.353683801062" lon="18.012313257831">
        <ele>84.8</ele>
        <time>2019-09-03T17:18:34Z</time>
      </trkpt>
      <trkpt lat="59.353748257873" lon="18.012504197513">
        <ele>84</ele>
        <time>2019-09-03T17:18:36Z</time>
      </trkpt>
      <trkpt lat="59.353793268676" lon="18.012599499716">
        <ele>83.6</ele>
        <time>2019-09-03T17:18:37Z</time>
      </trkpt>
      <trkpt lat="59.353917907529" lon="18.012748948993">
        <ele>82.6</ele>
        <time>2019-09-03T17:18:39Z</time>
      </trkpt>
      <trkpt lat="59.354075906344" lon="18.012757917626">
        <ele>81.6</ele>
        <time>2019-09-03T17:18:41Z</time>
      </trkpt>
      <trkpt lat="59.354154528566" lon="18.012744758043">
        <ele>81.2</ele>
        <time>2019-09-03T17:18:42Z</time>
      </trkpt>
      <trkpt lat="59.354386288101" lon="18.012881215375">
        <ele>80.6</ele>
        <time>2019-09-03T17:18:48Z</time>
      </trkpt>
      <trkpt lat="59.354418139321" lon="18.012909127102">
        <ele>80.2</ele>
        <time>2019-09-03T17:18:49Z</time>
      </trkpt>
      <trkpt lat="59.354511513687" lon="18.012918347192">
        <ele>79.6</ele>
        <time>2019-09-03T17:18:51Z</time>
      </trkpt>
      <trkpt lat="59.354562475639" lon="18.012890686922">
        <ele>79</ele>
        <time>2019-09-03T17:18:52Z</time>
      </trkpt>
      <trkpt lat="59.354622490043" lon="18.012840227884">
        <ele>78.2</ele>
        <time>2019-09-03T17:18:53Z</time>
      </trkpt>
      <trkpt lat="59.354691053985" lon="18.012792367235">
        <ele>77.8</ele>
        <time>2019-09-03T17:18:54Z</time>
      </trkpt>
      <trkpt lat="59.35505440935" lon="18.012571001256">
        <ele>77.2</ele>
        <time>2019-09-03T17:18:58Z</time>
      </trkpt>
      <trkpt lat="59.355229255784" lon="18.012515680716">
        <ele>77</ele>
        <time>2019-09-03T17:19:00Z</time>
      </trkpt>
      <trkpt lat="59.355305531074" lon="18.012467903886">
        <ele>76.8</ele>
        <time>2019-09-03T17:19:01Z</time>
      </trkpt>
      <trkpt lat="59.355355235741" lon="18.012384671619">
        <ele>76.6</ele>
        <time>2019-09-03T17:19:02Z</time>
      </trkpt>
      <trkpt lat="59.355419357276" lon="18.012170346436">
        <ele>75.8</ele>
        <time>2019-09-03T17:19:04Z</time>
      </trkpt>
      <trkpt lat="59.35564868606" lon="18.01152711943">
        <ele>74.8</ele>
        <time>2019-09-03T17:19:11Z</time>
      </trkpt>
      <trkpt lat="59.355698726003" lon="18.011491412536">
        <ele>74.6</ele>
        <time>2019-09-03T17:19:13Z</time>
      </trkpt>
      <trkpt lat="59.35552379575" lon="18.012060795003">
        <ele>73.8</ele>
        <time>2019-09-03T17:19:21Z</time>
      </trkpt>
      <trkpt lat="59.355280469193" lon="18.013121524448">
        <ele>72.6</ele>
        <time>2019-09-03T17:19:29Z</time>
      </trkpt>
      <trkpt lat="59.355297819726" lon="18.013351356146">
        <ele>72.8</ele>
        <time>2019-09-03T17:19:32Z</time>
      </trkpt>
      <trkpt lat="59.355225903024" lon="18.013733822243">
        <ele>72.6</ele>
        <time>2019-09-03T17:19:34Z</time>
      </trkpt>
      <trkpt lat="59.355078884498" lon="18.014266240531">
        <ele>72.8</ele>
        <time>2019-09-03T17:19:37Z</time>
      </trkpt>
      <trkpt lat="59.354860200727" lon="18.014676283079">
        <ele>73.6</ele>
        <time>2019-09-03T17:19:41Z</time>
      </trkpt>
      <trkpt lat="59.354742099756" lon="18.015012732545">
        <ele>75.2</ele>
        <time>2019-09-03T17:19:44Z</time>
      </trkpt>
      <trkpt lat="59.354697675686" lon="18.015415315202">
        <ele>74.6</ele>
        <time>2019-09-03T17:20:46Z</time>
      </trkpt>
      <trkpt lat="59.354986767417" lon="18.015821082981">
        <ele>75.6</ele>
        <time>2019-09-03T17:20:54Z</time>
      </trkpt>
      <trkpt lat="59.355132025744" lon="18.015902135954">
        <ele>76</ele>
        <time>2019-09-03T17:20:57Z</time>
      </trkpt>
      <trkpt lat="59.355315254078" lon="18.016207153295">
        <ele>76.4</ele>
        <time>2019-09-03T17:21:02Z</time>
      </trkpt>
      <trkpt lat="59.35536453965" lon="18.016370097431">
        <ele>76.6</ele>
        <time>2019-09-03T17:21:04Z</time>
      </trkpt>
      <trkpt lat="59.355445592623" lon="18.016447965282">
        <ele>76.6</ele>
        <time>2019-09-03T17:21:06Z</time>
      </trkpt>
      <trkpt lat="59.356017322022" lon="18.016604455355">
        <ele>77.4</ele>
        <time>2019-09-03T17:21:17Z</time>
      </trkpt>
      <trkpt lat="59.356064763576" lon="18.016616022377">
        <ele>77.4</ele>
        <time>2019-09-03T17:21:18Z</time>
      </trkpt>
      <trkpt lat="59.35666624872" lon="18.016813164665">
        <ele>78</ele>
        <time>2019-09-03T17:21:27Z</time>
      </trkpt>
      <trkpt lat="59.357218532111" lon="18.01701223479">
        <ele>76.6</ele>
        <time>2019-09-03T17:21:34Z</time>
      </trkpt>
      <trkpt lat="59.357310146278" lon="18.017039727422">
        <ele>76.4</ele>
        <time>2019-09-03T17:21:35Z</time>
      </trkpt>
      <trkpt lat="59.357892101595" lon="18.017169982148">
        <ele>76.4</ele>
        <time>2019-09-03T17:21:42Z</time>
      </trkpt>
      <trkpt lat="59.358427034453" lon="18.017310965706">
        <ele>77.6</ele>
        <time>2019-09-03T17:21:49Z</time>
      </trkpt>
      <trkpt lat="59.358988957029" lon="18.017377517992">
        <ele>78.8</ele>
        <time>2019-09-03T17:21:57Z</time>
      </trkpt>
      <trkpt lat="59.359421295431" lon="18.017445746658">
        <ele>79.8</ele>
        <time>2019-09-03T17:22:03Z</time>
      </trkpt>
      <trkpt lat="59.359793954705" lon="18.017474999489">
        <ele>81</ele>
        <time>2019-09-03T17:22:08Z</time>
      </trkpt>
      <trkpt lat="59.360149850179" lon="18.017476508231">
        <ele>82.2</ele>
        <time>2019-09-03T17:22:13Z</time>
      </trkpt>
      <trkpt lat="59.360689057806" lon="18.017406100271">
        <ele>83</ele>
        <time>2019-09-03T17:22:21Z</time>
      </trkpt>
      <trkpt lat="59.360741863776" lon="18.017384139693">
        <ele>83.2</ele>
        <time>2019-09-03T17:22:22Z</time>
      </trkpt>
      <trkpt lat="59.360896509831" lon="18.017352037016">
        <ele>84.6</ele>
        <time>2019-09-03T17:22:25Z</time>
      </trkpt>
      <trkpt lat="59.361052664628" lon="18.017342984564">
        <ele>85.8</ele>
        <time>2019-09-03T17:22:28Z</time>
      </trkpt>
      <trkpt lat="59.36133161426" lon="18.017301577978">
        <ele>87</ele>
        <time>2019-09-03T17:22:33Z</time>
      </trkpt>
      <trkpt lat="59.361440998055" lon="18.017257489184">
        <ele>88.2</ele>
        <time>2019-09-03T17:22:36Z</time>
      </trkpt>
      <trkpt lat="59.361548202556" lon="18.017166880845">
        <ele>89.4</ele>
        <time>2019-09-03T17:22:39Z</time>
      </trkpt>
      <trkpt lat="59.361688934657" lon="18.017013827351">
        <ele>90.8</ele>
        <time>2019-09-03T17:22:43Z</time>
      </trkpt>
      <trkpt lat="59.361795552425" lon="18.016967475444">
        <ele>92</ele>
        <time>2019-09-03T17:22:46Z</time>
      </trkpt>
      <trkpt lat="59.361915329776" lon="18.016928164333">
        <ele>92.6</ele>
        <time>2019-09-03T17:22:49Z</time>
      </trkpt>
      <trkpt lat="59.362078273912" lon="18.01681442195">
        <ele>92.4</ele>
        <time>2019-09-03T17:22:52Z</time>
      </trkpt>
      <trkpt lat="59.362374406439" lon="18.016436817355">
        <ele>91.2</ele>
        <time>2019-09-03T17:22:57Z</time>
      </trkpt>
      <trkpt lat="59.362431487178" lon="18.016400691366">
        <ele>91</ele>
        <time>2019-09-03T17:22:58Z</time>
      </trkpt>
      <trkpt lat="59.362615134607" lon="18.016260965093">
        <ele>90.4</ele>
        <time>2019-09-03T17:23:01Z</time>
      </trkpt>
      <trkpt lat="59.363135734416" lon="18.015983021289">
        <ele>90.4</ele>
        <time>2019-09-03T17:23:09Z</time>
      </trkpt>
      <trkpt lat="59.363247968057" lon="18.015953014087">
        <ele>90.2</ele>
        <time>2019-09-03T17:23:11Z</time>
      </trkpt>
      <trkpt lat="59.363341258604" lon="18.016021997124">
        <ele>89.8</ele>
        <time>2019-09-03T17:23:13Z</time>
      </trkpt>
      <trkpt lat="59.36339188528" lon="18.01609693131">
        <ele>89.6</ele>
        <time>2019-09-03T17:23:14Z</time>
      </trkpt>
      <trkpt lat="59.363479392316" lon="18.016202794707">
        <ele>89.2</ele>
        <time>2019-09-03T17:23:16Z</time>
      </trkpt>
      <trkpt lat="59.363592464147" lon="18.016298683643">
        <ele>88.8</ele>
        <time>2019-09-03T17:23:18Z</time>
      </trkpt>
      <trkpt lat="59.363626243204" lon="18.016373953105">
        <ele>88.6</ele>
        <time>2019-09-03T17:23:19Z</time>
      </trkpt>
      <trkpt lat="59.363650466895" lon="18.016454922259">
        <ele>88.4</ele>
        <time>2019-09-03T17:23:20Z</time>
      </trkpt>
      <trkpt lat="59.363674522948" lon="18.016624907191">
        <ele>87.8</ele>
        <time>2019-09-03T17:23:22Z</time>
      </trkpt>
      <trkpt lat="59.363684916504" lon="18.016692549124">
        <ele>87.4</ele>
        <time>2019-09-03T17:23:23Z</time>
      </trkpt>
      <trkpt lat="59.363706960901" lon="18.016839316193">
        <ele>86.2</ele>
        <time>2019-09-03T17:23:26Z</time>
      </trkpt>
      <trkpt lat="59.363772172083" lon="18.016810231">
        <ele>85.8</ele>
        <time>2019-09-03T17:23:28Z</time>
      </trkpt>
      <trkpt lat="59.36374727784" lon="18.01683286213">
        <ele>85.6</ele>
        <time>2019-09-03T17:23:30Z</time>
      </trkpt>
      <trkpt lat="59.363852219228" lon="18.016700679567">
        <ele>85.4</ele>
        <time>2019-09-03T17:23:32Z</time>
      </trkpt>
      <trkpt lat="59.363893625814" lon="18.016616190015">
        <ele>85.4</ele>
        <time>2019-09-03T17:23:33Z</time>
      </trkpt>
      <trkpt lat="59.363950874191" lon="18.016507895867">
        <ele>85.2</ele>
        <time>2019-09-03T17:23:34Z</time>
      </trkpt>
      <trkpt lat="59.363994376252" lon="18.016402283927">
        <ele>85</ele>
        <time>2019-09-03T17:23:35Z</time>
      </trkpt>
      <trkpt lat="59.364076099777" lon="18.016162896863">
        <ele>84.8</ele>
        <time>2019-09-03T17:23:37Z</time>
      </trkpt>
      <trkpt lat="59.3641445799" lon="18.015991403189">
        <ele>84.4</ele>
        <time>2019-09-03T17:23:39Z</time>
      </trkpt>
      <trkpt lat="59.364267542373" lon="18.01565939613">
        <ele>84</ele>
        <time>2019-09-03T17:23:41Z</time>
      </trkpt>
      <trkpt lat="59.364297717213" lon="18.015512293785">
        <ele>83.8</ele>
        <time>2019-09-03T17:23:42Z</time>
      </trkpt>
      <trkpt lat="59.364328227329" lon="18.015308613615">
        <ele>83.6</ele>
        <time>2019-09-03T17:23:44Z</time>
      </trkpt>
      <trkpt lat="59.364311212072" lon="18.015079284831">
        <ele>82.8</ele>
        <time>2019-09-03T17:23:46Z</time>
      </trkpt>
      <trkpt lat="59.364315151565" lon="18.014889350977">
        <ele>82</ele>
        <time>2019-09-03T17:23:48Z</time>
      </trkpt>
      <trkpt lat="59.364341889826" lon="18.014818859198">
        <ele>81.4</ele>
        <time>2019-09-03T17:23:49Z</time>
      </trkpt>
      <trkpt lat="59.364411208139" lon="18.014851632427">
        <ele>80.2</ele>
        <time>2019-09-03T17:23:51Z</time>
      </trkpt>
      <trkpt lat="59.364634669593" lon="18.014893374289">
        <ele>79.2</ele>
        <time>2019-09-03T17:23:57Z</time>
      </trkpt>
      <trkpt lat="59.364836841021" lon="18.015025892128">
        <ele>78.4</ele>
        <time>2019-09-03T17:24:01Z</time>
      </trkpt>
      <trkpt lat="59.364999701338" lon="18.015125636738">
        <ele>78.4</ele>
        <time>2019-09-03T17:24:03Z</time>
      </trkpt>
      <trkpt lat="59.365170356822" lon="18.015022958463">
        <ele>78.2</ele>
        <time>2019-09-03T17:24:06Z</time>
      </trkpt>
      <trkpt lat="59.365276723133" lon="18.014873844462">
        <ele>78.2</ele>
        <time>2019-09-03T17:24:08Z</time>
      </trkpt>
      <trkpt lat="59.365330451112" lon="18.014777452612">
        <ele>77.6</ele>
        <time>2019-09-03T17:24:09Z</time>
      </trkpt>
      <trkpt lat="59.365800340426" lon="18.014124754059">
        <ele>77.6</ele>
        <time>2019-09-03T17:24:17Z</time>
      </trkpt>
      <trkpt lat="59.36627442069" lon="18.013467613099">
        <ele>77</ele>
        <time>2019-09-03T17:24:25Z</time>
      </trkpt>
      <trkpt lat="59.366449015667" lon="18.013235099193">
        <ele>76.6</ele>
        <time>2019-09-03T17:24:28Z</time>
      </trkpt>
      <trkpt lat="59.366612295079" lon="18.012986324401">
        <ele>78.2</ele>
        <time>2019-09-03T17:24:31Z</time>
      </trkpt>
      <trkpt lat="59.366783285839" lon="18.01276344968">
        <ele>79.6</ele>
        <time>2019-09-03T17:24:34Z</time>
      </trkpt>
      <trkpt lat="59.366988307113" lon="18.012451894457">
        <ele>79</ele>
        <time>2019-09-03T17:24:38Z</time>
      </trkpt>
      <trkpt lat="59.36704052635" lon="18.012319125161">
        <ele>78.4</ele>
        <time>2019-09-03T17:24:39Z</time>
      </trkpt>
      <trkpt lat="59.36709333232" lon="18.0122337136">
        <ele>78</ele>
        <time>2019-09-03T17:24:40Z</time>
      </trkpt>
      <trkpt lat="59.367208499626" lon="18.012080911563">
        <ele>77.4</ele>
        <time>2019-09-03T17:24:42Z</time>
      </trkpt>
      <trkpt lat="59.367267927297" lon="18.01199566764">
        <ele>77.4</ele>
        <time>2019-09-03T17:24:43Z</time>
      </trkpt>
      <trkpt lat="59.367505386524" lon="18.011589229309">
        <ele>76.2</ele>
        <time>2019-09-03T17:24:47Z</time>
      </trkpt>
      <trkpt lat="59.36763312668" lon="18.011429805571">
        <ele>75</ele>
        <time>2019-09-03T17:24:49Z</time>
      </trkpt>
      <trkpt lat="59.367784503794" lon="18.011253115119">
        <ele>73.4</ele>
        <time>2019-09-03T17:24:52Z</time>
      </trkpt>
      <trkpt lat="59.367916602538" lon="18.011078771599">
        <ele>72.4</ele>
        <time>2019-09-03T17:24:56Z</time>
      </trkpt>
      <trkpt lat="59.367991872" lon="18.011113472665">
        <ele>72.2</ele>
        <time>2019-09-03T17:24:58Z</time>
      </trkpt>
      <trkpt lat="59.368057837553" lon="18.011163093513">
        <ele>72</ele>
        <time>2019-09-03T17:25:00Z</time>
      </trkpt>
      <trkpt lat="59.368175016515" lon="18.011053793537">
        <ele>71.8</ele>
        <time>2019-09-03T17:25:02Z</time>
      </trkpt>
      <trkpt lat="59.368218937671" lon="18.010850616281">
        <ele>71.8</ele>
        <time>2019-09-03T17:25:04Z</time>
      </trkpt>
      <trkpt lat="59.368232348711" lon="18.010565631681">
        <ele>72</ele>
        <time>2019-09-03T17:25:06Z</time>
      </trkpt>
      <trkpt lat="59.368258667877" lon="18.010337392544">
        <ele>72.6</ele>
        <time>2019-09-03T17:25:08Z</time>
      </trkpt>
      <trkpt lat="59.368335362262" lon="18.010198672099">
        <ele>73.4</ele>
        <time>2019-09-03T17:25:10Z</time>
      </trkpt>
      <trkpt lat="59.368383725825" lon="18.010146369043">
        <ele>73.6</ele>
        <time>2019-09-03T17:25:11Z</time>
      </trkpt>
      <trkpt lat="59.368564691046" lon="18.009655860255">
        <ele>73.8</ele>
        <time>2019-09-03T17:25:20Z</time>
      </trkpt>
      <trkpt lat="59.368626549468" lon="18.00947523031">
        <ele>73.8</ele>
        <time>2019-09-03T17:25:22Z</time>
      </trkpt>
      <trkpt lat="59.368817656788" lon="18.009123274329">
        <ele>74.6</ele>
        <time>2019-09-03T17:25:26Z</time>
      </trkpt>
      <trkpt lat="59.369133989694" lon="18.008816832065">
        <ele>74</ele>
        <time>2019-09-03T17:25:31Z</time>
      </trkpt>
      <trkpt lat="59.369206744586" lon="18.008777772411">
        <ele>73.6</ele>
        <time>2019-09-03T17:25:32Z</time>
      </trkpt>
      <trkpt lat="59.369731367707" lon="18.008582893236">
        <ele>72.4</ele>
        <time>2019-09-03T17:25:40Z</time>
      </trkpt>
      <trkpt lat="59.370297397414" lon="18.008363455094">
        <ele>71.6</ele>
        <time>2019-09-03T17:25:46Z</time>
      </trkpt>
      <trkpt lat="59.370869881184" lon="18.008070340051">
        <ele>73.4</ele>
        <time>2019-09-03T17:25:53Z</time>
      </trkpt>
      <trkpt lat="59.371326275639" lon="18.00797906116">
        <ele>72.2</ele>
        <time>2019-09-03T17:25:58Z</time>
      </trkpt>
      <trkpt lat="59.37168409895" lon="18.007778147017">
        <ele>71</ele>
        <time>2019-09-03T17:26:02Z</time>
      </trkpt>
      <trkpt lat="59.372205285492" lon="18.007599696366">
        <ele>72</ele>
        <time>2019-09-03T17:26:09Z</time>
      </trkpt>
      <trkpt lat="59.372270077579" lon="18.007600786013">
        <ele>72</ele>
        <time>2019-09-03T17:26:10Z</time>
      </trkpt>
      <trkpt lat="59.372342497195" lon="18.007593326122">
        <ele>72</ele>
        <time>2019-09-03T17:26:11Z</time>
      </trkpt>
      <trkpt lat="59.372493203757" lon="18.007473213495">
        <ele>71.6</ele>
        <time>2019-09-03T17:26:13Z</time>
      </trkpt>
      <trkpt lat="59.372629828727" lon="18.007310353178">
        <ele>70.8</ele>
        <time>2019-09-03T17:26:15Z</time>
      </trkpt>
      <trkpt lat="59.372868796696" lon="18.007133159812">
        <ele>69.8</ele>
        <time>2019-09-03T17:26:18Z</time>
      </trkpt>
      <trkpt lat="59.372948843841" lon="18.007096363271">
        <ele>69.6</ele>
        <time>2019-09-03T17:26:19Z</time>
      </trkpt>
      <trkpt lat="59.373024867674" lon="18.007038779618">
        <ele>69.6</ele>
        <time>2019-09-03T17:26:20Z</time>
      </trkpt>
      <trkpt lat="59.373458966275" lon="18.006478114327">
        <ele>68.6</ele>
        <time>2019-09-03T17:26:26Z</time>
      </trkpt>
      <trkpt lat="59.373976716238" lon="18.006067904141">
        <ele>69.4</ele>
        <time>2019-09-03T17:26:33Z</time>
      </trkpt>
      <trkpt lat="59.374132619578" lon="18.005951898645">
        <ele>69.6</ele>
        <time>2019-09-03T17:26:35Z</time>
      </trkpt>
      <trkpt lat="59.374662523296" lon="18.005511681257">
        <ele>69.6</ele>
        <time>2019-09-03T17:26:42Z</time>
      </trkpt>
      <trkpt lat="59.37522209894" lon="18.005064758349">
        <ele>70.2</ele>
        <time>2019-09-03T17:26:50Z</time>
      </trkpt>
      <trkpt lat="59.375484200953" lon="18.004858731247">
        <ele>70.8</ele>
        <time>2019-09-03T17:26:54Z</time>
      </trkpt>
      <trkpt lat="59.376006225685" lon="18.004529322577">
        <ele>71.6</ele>
        <time>2019-09-03T17:27:02Z</time>
      </trkpt>
      <trkpt lat="59.376070850134" lon="18.004502668135">
        <ele>71.8</ele>
        <time>2019-09-03T17:27:03Z</time>
      </trkpt>
      <trkpt lat="59.376200434308" lon="18.004434607107">
        <ele>72.4</ele>
        <time>2019-09-03T17:27:05Z</time>
      </trkpt>
      <trkpt lat="59.376333706518" lon="18.004349949917">
        <ele>73</ele>
        <time>2019-09-03T17:27:07Z</time>
      </trkpt>
      <trkpt lat="59.376894204171" lon="18.004027162948">
        <ele>73.8</ele>
        <time>2019-09-03T17:27:16Z</time>
      </trkpt>
      <trkpt lat="59.377001743948" lon="18.003951055296">
        <ele>74.2</ele>
        <time>2019-09-03T17:27:18Z</time>
      </trkpt>
      <trkpt lat="59.377153372519" lon="18.003810826109">
        <ele>75.2</ele>
        <time>2019-09-03T17:27:21Z</time>
      </trkpt>
      <trkpt lat="59.377263007771" lon="18.00373111424">
        <ele>75.8</ele>
        <time>2019-09-03T17:27:23Z</time>
      </trkpt>
      <trkpt lat="59.377307767117" lon="18.003685349066">
        <ele>76.2</ele>
        <time>2019-09-03T17:27:24Z</time>
      </trkpt>
      <trkpt lat="59.377391837574" lon="18.003562554231">
        <ele>77.4</ele>
        <time>2019-09-03T17:27:26Z</time>
      </trkpt>
      <trkpt lat="59.377489151433" lon="18.003462474345">
        <ele>78.2</ele>
        <time>2019-09-03T17:27:28Z</time>
      </trkpt>
      <trkpt lat="59.377542795593" lon="18.003437663921">
        <ele>78.4</ele>
        <time>2019-09-03T17:27:29Z</time>
      </trkpt>
      <trkpt lat="59.377595936839" lon="18.003426683632">
        <ele>78.6</ele>
        <time>2019-09-03T17:27:30Z</time>
      </trkpt>
      <trkpt lat="59.377812357497" lon="18.003392988394">
        <ele>79</ele>
        <time>2019-09-03T17:27:34Z</time>
      </trkpt>
      <trkpt lat="59.377908665528" lon="18.003275641794">
        <ele>79.4</ele>
        <time>2019-09-03T17:27:36Z</time>
      </trkpt>
      <trkpt lat="59.377949820657" lon="18.003197690124">
        <ele>79.4</ele>
        <time>2019-09-03T17:27:37Z</time>
      </trkpt>
      <trkpt lat="59.377994328546" lon="18.003141363756">
        <ele>79.6</ele>
        <time>2019-09-03T17:27:38Z</time>
      </trkpt>
      <trkpt lat="59.378208989005" lon="18.00298428695">
        <ele>80.6</ele>
        <time>2019-09-03T17:27:42Z</time>
      </trkpt>
      <trkpt lat="59.37872154219" lon="18.002511296333">
        <ele>80.2</ele>
        <time>2019-09-03T17:27:51Z</time>
      </trkpt>
      <trkpt lat="59.379139966638" lon="18.002184905147">
        <ele>79.6</ele>
        <time>2019-09-03T17:27:57Z</time>
      </trkpt>
      <trkpt lat="59.379433249319" lon="18.001949206119">
        <ele>78.6</ele>
        <time>2019-09-03T17:28:01Z</time>
      </trkpt>
      <trkpt lat="59.379949741997" lon="18.001555089181">
        <ele>78</ele>
        <time>2019-09-03T17:28:08Z</time>
      </trkpt>
      <trkpt lat="59.380181752989" lon="18.0014462083">
        <ele>77.6</ele>
        <time>2019-09-03T17:28:11Z</time>
      </trkpt>
      <trkpt lat="59.380261129582" lon="18.001431707613">
        <ele>77.6</ele>
        <time>2019-09-03T17:28:12Z</time>
      </trkpt>
      <trkpt lat="59.38069547964" lon="18.0015216454">
        <ele>76.4</ele>
        <time>2019-09-03T17:28:17Z</time>
      </trkpt>
      <trkpt lat="59.381047351802" lon="18.001636561249">
        <ele>75.2</ele>
        <time>2019-09-03T17:28:21Z</time>
      </trkpt>
      <trkpt lat="59.381197303993" lon="18.00164988847">
        <ele>74.6</ele>
        <time>2019-09-03T17:28:23Z</time>
      </trkpt>
      <trkpt lat="59.381273998378" lon="18.001625161865">
        <ele>74</ele>
        <time>2019-09-03T17:28:24Z</time>
      </trkpt>
      <trkpt lat="59.38144733607" lon="18.001550311498">
        <ele>73.4</ele>
        <time>2019-09-03T17:28:26Z</time>
      </trkpt>
      <trkpt lat="59.381652524982" lon="18.001241270845">
        <ele>73</ele>
        <time>2019-09-03T17:28:29Z</time>
      </trkpt>
      <trkpt lat="59.382122246658" lon="18.000511458812">
        <ele>74</ele>
        <time>2019-09-03T17:28:36Z</time>
      </trkpt>
      <trkpt lat="59.382192319342" lon="18.000428394183">
        <ele>74.2</ele>
        <time>2019-09-03T17:28:37Z</time>
      </trkpt>
      <trkpt lat="59.382666148149" lon="17.999866806883">
        <ele>74.8</ele>
        <time>2019-09-03T17:28:44Z</time>
      </trkpt>
      <trkpt lat="59.382808472811" lon="17.999748622093">
        <ele>74.8</ele>
        <time>2019-09-03T17:28:46Z</time>
      </trkpt>
      <trkpt lat="59.382893549096" lon="17.999543852276">
        <ele>74.8</ele>
        <time>2019-09-03T17:28:48Z</time>
      </trkpt>
      <trkpt lat="59.382948618179" lon="17.999143281275">
        <ele>74.6</ele>
        <time>2019-09-03T17:28:51Z</time>
      </trkpt>
      <trkpt lat="59.383024222917" lon="17.998897104872">
        <ele>74.4</ele>
        <time>2019-09-03T17:28:53Z</time>
      </trkpt>
      <trkpt lat="59.383504589606" lon="17.998214734393">
        <ele>74.4</ele>
        <time>2019-09-03T17:29:01Z</time>
      </trkpt>
      <trkpt lat="59.383684716637" lon="17.997989764197">
        <ele>74.8</ele>
        <time>2019-09-03T17:29:04Z</time>
      </trkpt>
      <trkpt lat="59.383817234476" lon="17.997916674029">
        <ele>75</ele>
        <time>2019-09-03T17:29:06Z</time>
      </trkpt>
      <trkpt lat="59.384025189415" lon="17.997925475024">
        <ele>75.2</ele>
        <time>2019-09-03T17:29:09Z</time>
      </trkpt>
      <trkpt lat="59.384593482235" lon="17.99794425048">
        <ele>74.8</ele>
        <time>2019-09-03T17:29:17Z</time>
      </trkpt>
      <trkpt lat="59.38508591886" lon="17.997934024562">
        <ele>76.4</ele>
        <time>2019-09-03T17:29:24Z</time>
      </trkpt>
      <trkpt lat="59.385647003246" lon="17.997897228021">
        <ele>77.2</ele>
        <time>2019-09-03T17:29:32Z</time>
      </trkpt>
      <trkpt lat="59.385776671239" lon="17.997890941596">
        <ele>77.6</ele>
        <time>2019-09-03T17:29:34Z</time>
      </trkpt>
      <trkpt lat="59.386101553683" lon="17.997865879715">
        <ele>78.8</ele>
        <time>2019-09-03T17:29:39Z</time>
      </trkpt>
      <trkpt lat="59.386353848873" lon="17.997842494214">
        <ele>80</ele>
        <time>2019-09-03T17:29:43Z</time>
      </trkpt>
      <trkpt lat="59.386756012435" lon="17.997805278578">
        <ele>81.2</ele>
        <time>2019-09-03T17:29:50Z</time>
      </trkpt>
      <trkpt lat="59.387290023284" lon="17.997791448443">
        <ele>82.2</ele>
        <time>2019-09-03T17:30:00Z</time>
      </trkpt>
      <trkpt lat="59.387369064601" lon="17.997840650196">
        <ele>83</ele>
        <time>2019-09-03T17:30:02Z</time>
      </trkpt>
      <trkpt lat="59.387390438446" lon="17.99789815003">
        <ele>83.6</ele>
        <time>2019-09-03T17:30:03Z</time>
      </trkpt>
      <trkpt lat="59.387407034608" lon="17.997966713972">
        <ele>84.2</ele>
        <time>2019-09-03T17:30:04Z</time>
      </trkpt>
      <trkpt lat="59.387426564435" lon="17.998128903737">
        <ele>84.8</ele>
        <time>2019-09-03T17:30:06Z</time>
      </trkpt>
      <trkpt lat="59.387431090661" lon="17.998301570877">
        <ele>85.2</ele>
        <time>2019-09-03T17:30:08Z</time>
      </trkpt>
      <trkpt lat="59.387463444795" lon="17.99848488303">
        <ele>85.8</ele>
        <time>2019-09-03T17:30:10Z</time>
      </trkpt>
      <trkpt lat="59.387483645174" lon="17.998589405323">
        <ele>85.8</ele>
        <time>2019-09-03T17:30:11Z</time>
      </trkpt>
      <trkpt lat="59.387574840246" lon="17.998896015225">
        <ele>85</ele>
        <time>2019-09-03T17:30:14Z</time>
      </trkpt>
      <trkpt lat="59.387616833565" lon="17.998991065971">
        <ele>84.2</ele>
        <time>2019-09-03T17:30:15Z</time>
      </trkpt>
      <trkpt lat="59.387653713925" lon="17.999082680138">
        <ele>83.4</ele>
        <time>2019-09-03T17:30:16Z</time>
      </trkpt>
      <trkpt lat="59.387712638682" lon="17.999133474452">
        <ele>83</ele>
        <time>2019-09-03T17:30:17Z</time>
      </trkpt>
      <trkpt lat="59.387779945339" lon="17.999153507193">
        <ele>82.6</ele>
        <time>2019-09-03T17:30:18Z</time>
      </trkpt>
      <trkpt lat="59.387889245315" lon="17.999150154433">
        <ele>82.2</ele>
        <time>2019-09-03T17:30:20Z</time>
      </trkpt>
      <trkpt lat="59.388005418449" lon="17.999070442564">
        <ele>82.2</ele>
        <time>2019-09-03T17:30:22Z</time>
      </trkpt>
      <trkpt lat="59.388314542921" lon="17.998717396936">
        <ele>84.2</ele>
        <time>2019-09-03T17:30:28Z</time>
      </trkpt>
      <trkpt lat="59.388804548795" lon="17.998078863794">
        <ele>83</ele>
        <time>2019-09-03T17:30:37Z</time>
      </trkpt>
      <trkpt lat="59.388968247302" lon="17.997885241904">
        <ele>81.8</ele>
        <time>2019-09-03T17:30:39Z</time>
      </trkpt>
      <trkpt lat="59.389123899185" lon="17.997644681374">
        <ele>79.8</ele>
        <time>2019-09-03T17:30:41Z</time>
      </trkpt>
      <trkpt lat="59.38928525076" lon="17.997389033424">
        <ele>78.2</ele>
        <time>2019-09-03T17:30:43Z</time>
      </trkpt>
      <trkpt lat="59.389433358933" lon="17.99714796998">
        <ele>76.8</ele>
        <time>2019-09-03T17:30:45Z</time>
      </trkpt>
      <trkpt lat="59.389670650522" lon="17.996794421438">
        <ele>75.4</ele>
        <time>2019-09-03T17:30:48Z</time>
      </trkpt>
      <trkpt lat="59.389952030905" lon="17.996380942311">
        <ele>75</ele>
        <time>2019-09-03T17:30:51Z</time>
      </trkpt>
      <trkpt lat="59.390110700272" lon="17.996030411253">
        <ele>74.8</ele>
        <time>2019-09-03T17:30:53Z</time>
      </trkpt>
      <trkpt lat="59.390420746753" lon="17.995045705641">
        <ele>74.8</ele>
        <time>2019-09-03T17:30:59Z</time>
      </trkpt>
      <trkpt lat="59.390755771296" lon="17.994059156011">
        <ele>74.8</ele>
        <time>2019-09-03T17:31:06Z</time>
      </trkpt>
      <trkpt lat="59.391087107803" lon="17.993099931375">
        <ele>75</ele>
        <time>2019-09-03T17:31:14Z</time>
      </trkpt>
      <trkpt lat="59.391411235876" lon="17.992168786104">
        <ele>76</ele>
        <time>2019-09-03T17:31:23Z</time>
      </trkpt>
      <trkpt lat="59.391727652601" lon="17.991182152655">
        <ele>76.4</ele>
        <time>2019-09-03T17:31:33Z</time>
      </trkpt>
      <trkpt lat="59.391756653975" lon="17.991083078597">
        <ele>76.6</ele>
        <time>2019-09-03T17:31:34Z</time>
      </trkpt>
      <trkpt lat="59.391863104105" lon="17.990679154836">
        <ele>77.6</ele>
        <time>2019-09-03T17:31:38Z</time>
      </trkpt>
      <trkpt lat="59.39196662057" lon="17.990253521954">
        <ele>78.4</ele>
        <time>2019-09-03T17:31:42Z</time>
      </trkpt>
      <trkpt lat="59.39213006762" lon="17.989542569196">
        <ele>78.2</ele>
        <time>2019-09-03T17:31:49Z</time>
      </trkpt>
      <trkpt lat="59.392290329548" lon="17.988819630321">
        <ele>78.8</ele>
        <time>2019-09-03T17:31:56Z</time>
      </trkpt>
      <trkpt lat="59.392338190197" lon="17.988616117789">
        <ele>79</ele>
        <time>2019-09-03T17:31:58Z</time>
      </trkpt>
      <trkpt lat="59.392454530969" lon="17.988258797392">
        <ele>79</ele>
        <time>2019-09-03T17:32:02Z</time>
      </trkpt>
      <trkpt lat="59.392793243548" lon="17.987748423501">
        <ele>79.8</ele>
        <time>2019-09-03T17:32:10Z</time>
      </trkpt>
      <trkpt lat="59.392954259847" lon="17.987587323383">
        <ele>80.2</ele>
        <time>2019-09-03T17:32:13Z</time>
      </trkpt>
      <trkpt lat="59.393403864963" lon="17.987326143379">
        <ele>81</ele>
        <time>2019-09-03T17:32:21Z</time>
      </trkpt>
      <trkpt lat="59.393949442834" lon="17.986912580433">
        <ele>81.8</ele>
        <time>2019-09-03T17:32:31Z</time>
      </trkpt>
      <trkpt lat="59.393999734234" lon="17.986860696472">
        <ele>82.2</ele>
        <time>2019-09-03T17:32:32Z</time>
      </trkpt>
      <trkpt lat="59.394040554087" lon="17.986928925138">
        <ele>82.4</ele>
        <time>2019-09-03T17:32:33Z</time>
      </trkpt>
      <trkpt lat="59.394124708363" lon="17.986879220471">
        <ele>82.2</ele>
        <time>2019-09-03T17:32:35Z</time>
      </trkpt>
      <trkpt lat="59.394272900355" lon="17.986821133904">
        <ele>82.2</ele>
        <time>2019-09-03T17:32:37Z</time>
      </trkpt>
      <trkpt lat="59.394419751243" lon="17.986702194743">
        <ele>82.6</ele>
        <time>2019-09-03T17:32:40Z</time>
      </trkpt>
      <trkpt lat="59.394693587916" lon="17.986551320543">
        <ele>83.2</ele>
        <time>2019-09-03T17:32:45Z</time>
      </trkpt>
      <trkpt lat="59.394974130109" lon="17.986387873493">
        <ele>84.4</ele>
        <time>2019-09-03T17:32:50Z</time>
      </trkpt>
      <trkpt lat="59.395489281683" lon="17.98605284895">
        <ele>84.2</ele>
        <time>2019-09-03T17:32:59Z</time>
      </trkpt>
      <trkpt lat="59.396025220369" lon="17.985646242981">
        <ele>84.4</ele>
        <time>2019-09-03T17:33:08Z</time>
      </trkpt>
      <trkpt lat="59.396545820178" lon="17.985132683968">
        <ele>85.4</ele>
        <time>2019-09-03T17:33:16Z</time>
      </trkpt>
      <trkpt lat="59.396609690256" lon="17.985067221329">
        <ele>85.4</ele>
        <time>2019-09-03T17:33:17Z</time>
      </trkpt>
      <trkpt lat="59.397093158248" lon="17.984576544903">
        <ele>85.4</ele>
        <time>2019-09-03T17:33:25Z</time>
      </trkpt>
      <trkpt lat="59.397383674902" lon="17.98427420977">
        <ele>86.4</ele>
        <time>2019-09-03T17:33:30Z</time>
      </trkpt>
      <trkpt lat="59.397899664666" lon="17.983717735429">
        <ele>86.8</ele>
        <time>2019-09-03T17:33:39Z</time>
      </trkpt>
      <trkpt lat="59.398102925741" lon="17.983445575136">
        <ele>87.4</ele>
        <time>2019-09-03T17:33:43Z</time>
      </trkpt>
      <trkpt lat="59.398571641589" lon="17.982863787457">
        <ele>88.4</ele>
        <time>2019-09-03T17:33:52Z</time>
      </trkpt>
      <trkpt lat="59.398624950473" lon="17.982802096673">
        <ele>88.6</ele>
        <time>2019-09-03T17:33:53Z</time>
      </trkpt>
      <trkpt lat="59.399089726828" lon="17.98220388047">
        <ele>89.6</ele>
        <time>2019-09-03T17:34:02Z</time>
      </trkpt>
      <trkpt lat="59.399488286173" lon="17.981336772915">
        <ele>90.4</ele>
        <time>2019-09-03T17:34:11Z</time>
      </trkpt>
      <trkpt lat="59.39965785201" lon="17.980979703975">
        <ele>90.4</ele>
        <time>2019-09-03T17:34:15Z</time>
      </trkpt>
      <trkpt lat="59.399779808655" lon="17.980573014187">
        <ele>90.8</ele>
        <time>2019-09-03T17:34:19Z</time>
      </trkpt>
      <trkpt lat="59.400177697448" lon="17.979798023713">
        <ele>91.6</ele>
        <time>2019-09-03T17:34:28Z</time>
      </trkpt>
      <trkpt lat="59.400263528104" lon="17.979621668537">
        <ele>91.8</ele>
        <time>2019-09-03T17:34:30Z</time>
      </trkpt>
      <trkpt lat="59.40066116544" lon="17.978771827696">
        <ele>92.2</ele>
        <time>2019-09-03T17:34:39Z</time>
      </trkpt>
      <trkpt lat="59.401048241582" lon="17.97791067129">
        <ele>92.4</ele>
        <time>2019-09-03T17:34:48Z</time>
      </trkpt>
      <trkpt lat="59.401620725352" lon="17.97667685561">
        <ele>92.8</ele>
        <time>2019-09-03T17:35:01Z</time>
      </trkpt>
      <trkpt lat="59.402018697964" lon="17.975843359474">
        <ele>93.4</ele>
        <time>2019-09-03T17:35:10Z</time>
      </trkpt>
      <trkpt lat="59.4023325163" lon="17.975192840215">
        <ele>93.8</ele>
        <time>2019-09-03T17:35:17Z</time>
      </trkpt>
      <trkpt lat="59.402717580786" lon="17.974352722378">
        <ele>94.8</ele>
        <time>2019-09-03T17:35:26Z</time>
      </trkpt>
      <trkpt lat="59.402762843046" lon="17.974262700772">
        <ele>95</ele>
        <time>2019-09-03T17:35:27Z</time>
      </trkpt>
      <trkpt lat="59.402902317862" lon="17.974003783881">
        <ele>95.2</ele>
        <time>2019-09-03T17:35:30Z</time>
      </trkpt>
      <trkpt lat="59.40302402305" lon="17.973912169714">
        <ele>95.2</ele>
        <time>2019-09-03T17:35:32Z</time>
      </trkpt>
      <trkpt lat="59.403156289432" lon="17.973964808046">
        <ele>95</ele>
        <time>2019-09-03T17:35:34Z</time>
      </trkpt>
      <trkpt lat="59.403402801111" lon="17.97424359004">
        <ele>95</ele>
        <time>2019-09-03T17:35:38Z</time>
      </trkpt>
      <trkpt lat="59.403742184242" lon="17.974445677649">
        <ele>95</ele>
        <time>2019-09-03T17:35:43Z</time>
      </trkpt>
      <trkpt lat="59.404273345245" lon="17.974808949195">
        <ele>94.2</ele>
        <time>2019-09-03T17:35:50Z</time>
      </trkpt>
      <trkpt lat="59.404354565856" lon="17.974879105698">
        <ele>94</ele>
        <time>2019-09-03T17:35:51Z</time>
      </trkpt>
      <trkpt lat="59.404561012053" lon="17.975180183546">
        <ele>93.6</ele>
        <time>2019-09-03T17:35:54Z</time>
      </trkpt>
      <trkpt lat="59.404655224609" lon="17.97542459975">
        <ele>93.6</ele>
        <time>2019-09-03T17:35:56Z</time>
      </trkpt>
      <trkpt lat="59.404982202528" lon="17.976374939572">
        <ele>93.8</ele>
        <time>2019-09-03T17:36:04Z</time>
      </trkpt>
      <trkpt lat="59.405028889711" lon="17.976470828508">
        <ele>93.8</ele>
        <time>2019-09-03T17:36:05Z</time>
      </trkpt>
      <trkpt lat="59.405136932402" lon="17.976613739903">
        <ele>93.8</ele>
        <time>2019-09-03T17:36:07Z</time>
      </trkpt>
      <trkpt lat="59.405251261518" lon="17.97669948674">
        <ele>93.6</ele>
        <time>2019-09-03T17:36:09Z</time>
      </trkpt>
      <trkpt lat="59.405374810724" lon="17.976772073994">
        <ele>93.8</ele>
        <time>2019-09-03T17:36:11Z</time>
      </trkpt>
      <trkpt lat="59.405533731548" lon="17.976990590127">
        <ele>94.2</ele>
        <time>2019-09-03T17:36:14Z</time>
      </trkpt>
      <trkpt lat="59.405665327378" lon="17.976981453856">
        <ele>94.2</ele>
        <time>2019-09-03T17:36:16Z</time>
      </trkpt>
      <trkpt lat="59.405809915153" lon="17.976872908251">
        <ele>94.2</ele>
        <time>2019-09-03T17:36:18Z</time>
      </trkpt>
      <trkpt lat="59.405916113826" lon="17.976693367953">
        <ele>93.8</ele>
        <time>2019-09-03T17:36:20Z</time>
      </trkpt>
      <trkpt lat="59.406329676772" lon="17.975885939526">
        <ele>94.8</ele>
        <time>2019-09-03T17:36:30Z</time>
      </trkpt>
      <trkpt lat="59.406365132209" lon="17.975823745828">
        <ele>95.2</ele>
        <time>2019-09-03T17:36:31Z</time>
      </trkpt>
      <trkpt lat="59.40648742413" lon="17.975658622398">
        <ele>96.6</ele>
        <time>2019-09-03T17:36:34Z</time>
      </trkpt>
      <trkpt lat="59.406533608399" lon="17.975604307686">
        <ele>96.8</ele>
        <time>2019-09-03T17:36:35Z</time>
      </trkpt>
      <trkpt lat="59.406763607735" lon="17.975333488497">
        <ele>97.6</ele>
        <time>2019-09-03T17:36:40Z</time>
      </trkpt>
      <trkpt lat="59.406801996837" lon="17.97529803306">
        <ele>97.8</ele>
        <time>2019-09-03T17:36:41Z</time>
      </trkpt>
      <trkpt lat="59.4069593251" lon="17.975263583451">
        <ele>99</ele>
        <time>2019-09-03T17:36:45Z</time>
      </trkpt>
      <trkpt lat="59.40714288871" lon="17.975214800793">
        <ele>100</ele>
        <time>2019-09-03T17:36:49Z</time>
      </trkpt>
      <trkpt lat="59.407384035973" lon="17.975097118917">
        <ele>101.2</ele>
        <time>2019-09-03T17:36:54Z</time>
      </trkpt>
      <trkpt lat="59.407954843363" lon="17.974753796293">
        <ele>102</ele>
        <time>2019-09-03T17:37:04Z</time>
      </trkpt>
      <trkpt lat="59.408010666817" lon="17.97470627092">
        <ele>102.4</ele>
        <time>2019-09-03T17:37:05Z</time>
      </trkpt>
      <trkpt lat="59.408451135662" lon="17.974092967297">
        <ele>103.4</ele>
        <time>2019-09-03T17:37:16Z</time>
      </trkpt>
      <trkpt lat="59.408522214174" lon="17.974052817996">
        <ele>103</ele>
        <time>2019-09-03T17:37:32Z</time>
      </trkpt>
      <trkpt lat="59.408546521684" lon="17.974139151566">
        <ele>103.2</ele>
        <time>2019-09-03T17:37:34Z</time>
      </trkpt>
      <trkpt lat="59.408601423129" lon="17.974241326927">
        <ele>103.4</ele>
        <time>2019-09-03T17:37:36Z</time>
      </trkpt>
      <trkpt lat="59.408732264588" lon="17.97440200795">
        <ele>103.2</ele>
        <time>2019-09-03T17:37:39Z</time>
      </trkpt>
      <trkpt lat="59.408809294249" lon="17.974524551328">
        <ele>103</ele>
        <time>2019-09-03T17:37:41Z</time>
      </trkpt>
      <trkpt lat="59.408877271458" lon="17.974668300913">
        <ele>102.8</ele>
        <time>2019-09-03T17:37:43Z</time>
      </trkpt>
      <trkpt lat="59.408983218674" lon="17.974716832114">
        <ele>103</ele>
        <time>2019-09-03T17:37:45Z</time>
      </trkpt>
      <trkpt lat="59.409097799247" lon="17.974609795251">
        <ele>103</ele>
        <time>2019-09-03T17:37:47Z</time>
      </trkpt>
      <trkpt lat="59.409475236204" lon="17.973982242398">
        <ele>103.2</ele>
        <time>2019-09-03T17:37:54Z</time>
      </trkpt>
      <trkpt lat="59.409667097895" lon="17.97376246898">
        <ele>102.6</ele>
        <time>2019-09-03T17:37:57Z</time>
      </trkpt>
      <trkpt lat="59.409740355701" lon="17.973713937779">
        <ele>102.2</ele>
        <time>2019-09-03T17:37:58Z</time>
      </trkpt>
      <trkpt lat="59.409982257335" lon="17.973600949767">
        <ele>101</ele>
        <time>2019-09-03T17:38:01Z</time>
      </trkpt>
      <trkpt lat="59.410251567782" lon="17.973522243726">
        <ele>100</ele>
        <time>2019-09-03T17:38:04Z</time>
      </trkpt>
      <trkpt lat="59.410519285668" lon="17.973457870734">
        <ele>98.8</ele>
        <time>2019-09-03T17:38:07Z</time>
      </trkpt>
      <trkpt lat="59.41088959801" lon="17.973410512999">
        <ele>97.6</ele>
        <time>2019-09-03T17:38:11Z</time>
      </trkpt>
      <trkpt lat="59.411501309072" lon="17.973419397813">
        <ele>97.4</ele>
        <time>2019-09-03T17:38:17Z</time>
      </trkpt>
      <trkpt lat="59.41212509007" lon="17.973338931573">
        <ele>96.8</ele>
        <time>2019-09-03T17:38:24Z</time>
      </trkpt>
      <trkpt lat="59.412316281209" lon="17.97329727353">
        <ele>96.4</ele>
        <time>2019-09-03T17:38:26Z</time>
      </trkpt>
      <trkpt lat="59.412872839369" lon="17.973209095942">
        <ele>96</ele>
        <time>2019-09-03T17:38:32Z</time>
      </trkpt>
      <trkpt lat="59.41340668258" lon="17.973068782936">
        <ele>97.6</ele>
        <time>2019-09-03T17:38:38Z</time>
      </trkpt>
      <trkpt lat="59.413826699589" lon="17.972982533185">
        <ele>98.6</ele>
        <time>2019-09-03T17:38:43Z</time>
      </trkpt>
      <trkpt lat="59.414406475612" lon="17.97289913328">
        <ele>98.8</ele>
        <time>2019-09-03T17:38:50Z</time>
      </trkpt>
      <trkpt lat="59.415038722329" lon="17.972857894332">
        <ele>97.8</ele>
        <time>2019-09-03T17:38:57Z</time>
      </trkpt>
      <trkpt lat="59.415127989564" lon="17.972850685898">
        <ele>97.6</ele>
        <time>2019-09-03T17:38:58Z</time>
      </trkpt>
      <trkpt lat="59.415703574637" lon="17.972763514138">
        <ele>98.2</ele>
        <time>2019-09-03T17:39:05Z</time>
      </trkpt>
      <trkpt lat="59.415838607046" lon="17.972752533849">
        <ele>98.6</ele>
        <time>2019-09-03T17:39:07Z</time>
      </trkpt>
      <trkpt lat="59.416051591125" lon="17.972738619895">
        <ele>100</ele>
        <time>2019-09-03T17:39:10Z</time>
      </trkpt>
      <trkpt lat="59.41659348096" lon="17.972561677986">
        <ele>100.2</ele>
        <time>2019-09-03T17:39:17Z</time>
      </trkpt>
      <trkpt lat="59.41686337814" lon="17.972527982748">
        <ele>98.8</ele>
        <time>2019-09-03T17:39:20Z</time>
      </trkpt>
      <trkpt lat="59.417042666981" lon="17.972506357446">
        <ele>97.8</ele>
        <time>2019-09-03T17:39:22Z</time>
      </trkpt>
      <trkpt lat="59.4172942078" lon="17.972495041881">
        <ele>96.6</ele>
        <time>2019-09-03T17:39:25Z</time>
      </trkpt>
      <trkpt lat="59.417838612205" lon="17.972467130154">
        <ele>95.4</ele>
        <time>2019-09-03T17:39:31Z</time>
      </trkpt>
      <trkpt lat="59.418037430873" lon="17.972446845956">
        <ele>93.8</ele>
        <time>2019-09-03T17:39:33Z</time>
      </trkpt>
      <trkpt lat="59.418246726916" lon="17.972409378863">
        <ele>92.6</ele>
        <time>2019-09-03T17:39:35Z</time>
      </trkpt>
      <trkpt lat="59.418461974108" lon="17.97237358815">
        <ele>91.6</ele>
        <time>2019-09-03T17:39:37Z</time>
      </trkpt>
      <trkpt lat="59.418763303413" lon="17.972306952045">
        <ele>90.4</ele>
        <time>2019-09-03T17:39:40Z</time>
      </trkpt>
      <trkpt lat="59.419063375433" lon="17.9722436687">
        <ele>89.4</ele>
        <time>2019-09-03T17:39:43Z</time>
      </trkpt>
      <trkpt lat="59.419239562971" lon="17.972209638186">
        <ele>88</ele>
        <time>2019-09-03T17:39:45Z</time>
      </trkpt>
      <trkpt lat="59.419376020303" lon="17.972205363417">
        <ele>87.2</ele>
        <time>2019-09-03T17:39:47Z</time>
      </trkpt>
      <trkpt lat="59.419429413006" lon="17.972228832737">
        <ele>87</ele>
        <time>2019-09-03T17:39:48Z</time>
      </trkpt>
      <trkpt lat="59.419520859535" lon="17.972276609567">
        <ele>87</ele>
        <time>2019-09-03T17:39:50Z</time>
      </trkpt>
      <trkpt lat="59.419614233901" lon="17.972240148302">
        <ele>87.4</ele>
        <time>2019-09-03T17:39:52Z</time>
      </trkpt>
      <trkpt lat="59.419704758421" lon="17.972069660456">
        <ele>87.4</ele>
        <time>2019-09-03T17:39:54Z</time>
      </trkpt>
      <trkpt lat="59.420014301988" lon="17.971095264581">
        <ele>88</ele>
        <time>2019-09-03T17:40:02Z</time>
      </trkpt>
      <trkpt lat="59.420247570265" lon="17.970394537741">
        <ele>89.2</ele>
        <time>2019-09-03T17:40:08Z</time>
      </trkpt>
      <trkpt lat="59.420553174339" lon="17.969507062169">
        <ele>89.6</ele>
        <time>2019-09-03T17:40:16Z</time>
      </trkpt>
      <trkpt lat="59.420605477395" lon="17.969296676479">
        <ele>90.8</ele>
        <time>2019-09-03T17:40:18Z</time>
      </trkpt>
      <trkpt lat="59.420648979456" lon="17.969098276906">
        <ele>92</ele>
        <time>2019-09-03T17:40:20Z</time>
      </trkpt>
      <trkpt lat="59.420692062422" lon="17.968911192898">
        <ele>92.8</ele>
        <time>2019-09-03T17:40:22Z</time>
      </trkpt>
      <trkpt lat="59.420752915016" lon="17.968732406971">
        <ele>93</ele>
        <time>2019-09-03T17:40:24Z</time>
      </trkpt>
      <trkpt lat="59.421150971447" lon="17.96798817807">
        <ele>92.8</ele>
        <time>2019-09-03T17:40:32Z</time>
      </trkpt>
      <trkpt lat="59.421640306769" lon="17.967406306572">
        <ele>91.8</ele>
        <time>2019-09-03T17:40:40Z</time>
      </trkpt>
      <trkpt lat="59.421793946996" lon="17.967221904772">
        <ele>92.2</ele>
        <time>2019-09-03T17:40:43Z</time>
      </trkpt>
      <trkpt lat="59.421825211483" lon="17.967043286483">
        <ele>92.2</ele>
        <time>2019-09-03T17:40:45Z</time>
      </trkpt>
      <trkpt lat="59.421741895397" lon="17.966841701788">
        <ele>91.6</ele>
        <time>2019-09-03T17:40:51Z</time>
      </trkpt>
    </trkseg>
  </trk>
</gpx>